Time;durP1;ratioP1;P1;durP2;ratioP2;P2;SDS_P1;SDS_P2;PMS_P1;PMS_P2;Temp;Humidity;BMP_temperature;BMP_pressure;BME280_temperature;BME280_humidity;BME280_pressure;Samples;Min_cycle;Max_cycle;Signal;HPM_P1;HPM_P2
2021/03/20 00:00:59;;;;;;;25.85;15.27;;;1.40;99.90;;;;;;5075068;28;20468;-71
2021/03/20 00:03:25;;;;;;;27.65;15.52;;;1.30;99.90;;;;;;5074968;28;20415;-71
2021/03/20 00:05:52;;;;;;;28.02;15.15;;;1.40;99.90;;;;;;5075118;28;20029;-71
2021/03/20 00:08:21;;;;;;;29.35;15.35;;;1.40;99.90;;;;;;5074766;28;20040;-71
2021/03/20 00:10:48;;;;;;;23.30;14.32;;;1.40;99.90;;;;;;5057337;28;20024;-71
2021/03/20 00:13:16;;;;;;;25.25;14.68;;;1.40;99.90;;;;;;5056876;28;20055;-71
2021/03/20 00:15:42;;;;;;;25.60;14.82;;;1.20;99.90;;;;;;5074678;28;20405;-71
2021/03/20 00:18:08;;;;;;;21.35;13.60;;;1.30;99.90;;;;;;5040125;28;20056;-71
2021/03/20 00:20:37;;;;;;;26.55;14.00;;;1.30;99.90;;;;;;5056810;28;20495;-71
2021/03/20 00:23:04;;;;;;;24.60;15.18;;;1.40;99.90;;;;;;5056816;28;20032;-72
2021/03/20 00:25:30;;;;;;;25.98;13.77;;;1.40;99.90;;;;;;5056571;28;20025;-71
2021/03/20 00:27:57;;;;;;;24.83;15.23;;;1.40;99.90;;;;;;5073274;28;20070;-71
2021/03/20 00:30:23;;;;;;;24.80;14.95;;;1.30;99.90;;;;;;5056551;28;20021;-71
2021/03/20 00:32:49;;;;;;;23.90;15.90;;;1.20;99.90;;;;;;5056642;28;20023;-71
2021/03/20 00:35:16;;;;;;;24.67;14.80;;;1.30;99.90;;;;;;5056371;28;20476;-71
2021/03/20 00:37:42;;;;;;;29.25;14.05;;;1.40;99.90;;;;;;5074332;28;20039;-71
2021/03/20 00:40:11;;;;;;;19.88;12.90;;;1.50;99.90;;;;;;5074391;28;20036;-71
2021/03/20 00:42:37;;;;;;;22.58;13.95;;;1.60;99.90;;;;;;5074409;28;20020;-71
2021/03/20 00:45:06;;;;;;;23.33;14.18;;;1.40;99.90;;;;;;5074247;28;20032;-71
2021/03/20 00:47:32;;;;;;;27.15;14.77;;;1.30;99.90;;;;;;5056201;28;20376;-71
2021/03/20 00:49:58;;;;;;;24.15;13.30;;;1.40;99.90;;;;;;5074348;28;20027;-71
2021/03/20 00:52:24;;;;;;;19.95;13.50;;;1.20;99.90;;;;;;5056113;28;20544;-71
2021/03/20 00:54:50;;;;;;;21.20;14.27;;;1.10;99.90;;;;;;5078110;22;20139;-75
2021/03/20 00:57:17;;;;;;;24.42;14.88;;;0.90;99.90;;;;;;5051768;28;20110;-75
2021/03/20 00:59:42;;;;;;;22.70;13.80;;;1.00;99.90;;;;;;5052598;28;20140;-75
2021/03/20 01:02:08;;;;;;;21.17;13.93;;;0.80;99.90;;;;;;5052880;28;20052;-75
2021/03/20 01:04:34;;;;;;;26.13;13.95;;;0.80;99.90;;;;;;5052713;28;20043;-75
2021/03/20 01:07:00;;;;;;;22.70;13.00;;;0.80;99.90;;;;;;5068094;28;20017;-75
2021/03/20 01:09:26;;;;;;;21.08;12.57;;;0.90;99.90;;;;;;5052652;28;20430;-75
2021/03/20 01:11:52;;;;;;;19.98;11.88;;;0.80;99.90;;;;;;5035435;28;20029;-75
2021/03/20 01:14:18;;;;;;;22.65;13.60;;;0.80;99.90;;;;;;5053601;28;20025;-75
2021/03/20 01:16:44;;;;;;;24.38;14.02;;;0.90;99.90;;;;;;5053554;28;20522;-75
2021/03/20 01:19:10;;;;;;;20.35;13.00;;;0.80;99.90;;;;;;5053502;28;20032;-75
2021/03/20 01:21:36;;;;;;;20.77;13.65;;;0.70;99.90;;;;;;5053494;28;20021;-75
2021/03/20 01:24:01;;;;;;;21.45;13.27;;;0.80;99.90;;;;;;5035582;28;20027;-75
2021/03/20 01:26:27;;;;;;;20.08;13.02;;;0.90;99.90;;;;;;5053298;28;20017;-75
2021/03/20 01:28:53;;;;;;;24.48;14.45;;;0.80;99.90;;;;;;5053128;28;20029;-76
2021/03/20 01:31:19;;;;;;;23.33;14.63;;;0.90;99.90;;;;;;5053203;28;20056;-75
2021/03/20 01:33:44;;;;;;;25.33;14.00;;;0.90;99.90;;;;;;5053270;28;20032;-75
2021/03/20 01:36:10;;;;;;;25.58;13.75;;;0.70;99.90;;;;;;5053063;28;20063;-75
2021/03/20 01:38:36;;;;;;;28.38;14.95;;;0.80;99.90;;;;;;5068185;28;20036;-74
2021/03/20 01:41:07;;;;;;;27.35;15.38;;;0.90;99.90;;;;;;5068507;28;20021;-75
2021/03/20 01:43:34;;;;;;;28.42;14.75;;;0.80;99.90;;;;;;5052965;28;20079;-75
2021/03/20 01:46:34;;;;;;;21.88;14.48;;;0.80;99.90;;;;;;5051699;28;20108;-75
2021/03/20 01:49:03;;;;;;;20.95;14.20;;;0.80;99.90;;;;;;5051635;28;20033;-75
2021/03/20 01:51:29;;;;;;;26.00;15.13;;;0.90;99.90;;;;;;5051542;28;20536;-76
2021/03/20 01:53:58;;;;;;;25.15;14.75;;;1.00;99.90;;;;;;5068087;28;20044;-76
2021/03/20 01:56:40;;;;;;;20.35;14.65;;;1.10;99.90;;;;;;5052724;28;20107;-76
2021/03/20 01:59:08;;;;;;;21.63;12.75;;;1.00;99.90;;;;;;5052587;28;20145;-75
2021/03/20 02:01:34;;;;;;;23.33;14.52;;;1.00;99.90;;;;;;5052674;28;20353;-75
2021/03/20 02:04:00;;;;;;;22.60;14.10;;;0.90;99.90;;;;;;5052568;28;20017;-75
2021/03/20 02:06:27;;;;;;;21.52;14.60;;;0.70;99.90;;;;;;5052488;28;20029;-75
2021/03/20 02:08:57;;;;;;;22.70;14.18;;;0.70;99.90;;;;;;5052446;28;20021;-74
2021/03/20 02:11:28;;;;;;;28.55;15.02;;;0.70;99.90;;;;;;5067863;28;20025;-76
2021/03/20 02:14:08;;;;;;;19.80;11.88;;;0.60;99.90;;;;;;5052515;28;20044;-75
2021/03/20 02:16:57;;;;;;;21.02;12.90;;;0.50;99.90;;;;;;5052224;28;20025;-75
2021/03/20 02:19:38;;;;;;;19.38;11.52;;;0.60;99.90;;;;;;5067843;28;20044;-75
2021/03/20 02:22:10;;;;;;;20.92;12.20;;;0.70;99.90;;;;;;5052343;28;20038;-76
2021/03/20 02:25:13;;;;;;;22.58;12.43;;;0.70;99.90;;;;;;5052187;28;20052;-76
2021/03/20 02:28:09;;;;;;;20.50;12.40;;;0.70;99.90;;;;;;5032517;28;20099;-75
2021/03/20 02:31:19;;;;;;;18.70;10.95;;;0.70;99.90;;;;;;5051017;28;20116;-75
2021/03/20 02:34:05;;;;;;;17.42;12.00;;;0.80;99.90;;;;;;5052241;28;20056;-75
2021/03/20 02:37:08;;;;;;;19.25;12.07;;;0.50;99.90;;;;;;5051997;28;20029;-75
2021/03/20 02:40:11;;;;;;;16.13;10.40;;;0.50;99.90;;;;;;5051884;28;20071;-75
2021/03/20 02:42:52;;;;;;;;;;;0.60;99.90;;;;;;5038290;28;20067;-75
2021/03/20 02:45:33;;;;;;;20.45;11.98;;;0.40;99.90;;;;;;5050682;28;19904;-75
2021/03/20 02:48:24;;;;;;;16.80;10.52;;;0.50;99.90;;;;;;5051883;28;20123;-75
2021/03/20 02:51:13;;;;;;;14.70;8.50;;;0.80;99.90;;;;;;5050240;28;20017;-75
2021/03/20 02:53:58;;;;;;;20.48;10.30;;;0.60;99.90;;;;;;5050694;28;20361;-75
2021/03/20 02:56:54;;;;;;;13.82;9.38;;;0.60;99.90;;;;;;5050446;28;20437;-75
2021/03/20 02:59:24;;;;;;;16.63;10.50;;;0.50;99.90;;;;;;5051750;28;20444;-76
2021/03/20 03:01:53;;;;;;;18.73;10.88;;;0.60;99.90;;;;;;5051786;28;20028;-75
2021/03/20 03:04:22;;;;;;;16.50;10.93;;;0.50;99.90;;;;;;5051815;28;20380;-75
2021/03/20 03:07:01;;;;;;;17.27;9.73;;;0.30;99.90;;;;;;5066995;28;20392;-75
2021/03/20 03:09:38;;;;;;;15.73;9.98;;;0.30;99.90;;;;;;5051617;28;20065;-75
2021/03/20 03:12:15;;;;;;;14.73;9.63;;;0.40;99.90;;;;;;5050577;28;20028;-76
2021/03/20 03:14:52;;;;;;;20.42;11.10;;;0.40;99.90;;;;;;5051657;28;20021;-75
2021/03/20 03:17:21;;;;;;;14.88;9.77;;;0.30;99.90;;;;;;5051760;28;20067;-75
2021/03/20 03:19:59;;;;;;;15.38;10.50;;;0.50;99.90;;;;;;5051932;28;20025;-76
2021/03/20 03:22:32;;;;;;;18.33;10.88;;;0.60;99.90;;;;;;5050320;28;20120;-76
2021/03/20 03:25:01;;;;;;;19.40;11.60;;;0.50;99.90;;;;;;5050235;28;20040;-75
2021/03/20 03:27:30;;;;;;;20.33;12.68;;;0.50;99.90;;;;;;5051387;28;20021;-75
2021/03/20 03:29:56;;;;;;;16.00;11.00;;;0.60;99.90;;;;;;5051871;28;20035;-75
2021/03/20 03:32:31;;;;;;;18.63;12.38;;;0.70;99.90;;;;;;5051662;28;20055;-75
2021/03/20 03:34:58;;;;;;;18.55;11.10;;;0.80;99.90;;;;;;5050232;28;20377;-75
2021/03/20 03:37:39;;;;;;;18.92;12.13;;;0.60;99.90;;;;;;5066767;28;20033;-75
2021/03/20 03:40:11;;;;;;;17.13;11.27;;;0.40;99.90;;;;;;5066795;28;20052;-75
2021/03/20 03:42:37;;;;;;;20.45;12.48;;;0.60;99.90;;;;;;5051749;28;20036;-76
2021/03/20 03:45:07;;;;;;;21.10;12.27;;;0.70;99.90;;;;;;5051314;28;20048;-76
2021/03/20 03:47:33;;;;;;;22.75;12.60;;;0.70;99.90;;;;;;5051186;28;20029;-75
2021/03/20 03:50:05;;;;;;;25.63;12.32;;;0.70;99.90;;;;;;5050113;28;20021;-75
2021/03/20 03:52:30;;;;;;;20.30;11.95;;;0.50;99.90;;;;;;5066836;28;20103;-75
2021/03/20 03:54:56;;;;;;;24.90;13.00;;;0.40;99.90;;;;;;5051082;28;20111;-75
2021/03/20 03:57:33;;;;;;;22.52;13.02;;;0.50;99.90;;;;;;5066726;28;20025;-76
2021/03/20 04:00:10;;;;;;;20.63;12.50;;;0.60;99.90;;;;;;5051122;28;20067;-75
2021/03/20 04:03:14;;;;;;;21.35;12.88;;;0.60;99.90;;;;;;5054545;28;20542;-75
2021/03/20 04:05:45;;;;;;;22.58;13.75;;;0.80;99.90;;;;;;5055112;28;20028;-75
2021/03/20 04:08:26;;;;;;;23.38;13.75;;;0.50;99.90;;;;;;5069914;28;20040;-75
2021/03/20 04:11:02;;;;;;;21.38;12.18;;;0.50;99.90;;;;;;5054925;28;20029;-75
2021/03/20 04:14:04;;;;;;;21.90;14.00;;;0.40;99.90;;;;;;5053542;28;20017;-75
2021/03/20 04:17:07;;;;;;;27.63;14.23;;;0.30;99.90;;;;;;5054722;28;20017;-75
2021/03/20 04:19:49;;;;;;;20.30;12.90;;;0.40;99.90;;;;;;5023049;28;20106;-75
2021/03/20 04:22:24;;;;;;;24.98;14.95;;;0.40;99.90;;;;;;5054839;28;20063;-76
2021/03/20 04:24:54;;;;;;;22.63;13.90;;;0.50;99.90;;;;;;5054532;28;20033;-75
2021/03/20 04:27:27;;;;;;;26.45;15.15;;;0.40;99.90;;;;;;5054832;28;20444;-75
2021/03/20 04:30:12;;;;;;;23.58;14.07;;;0.40;99.90;;;;;;5054616;28;20023;-75
2021/03/20 04:33:01;;;;;;;24.13;14.27;;;0.30;99.90;;;;;;5070027;28;20032;-73
2021/03/20 04:35:37;;;;;;;31.02;16.23;;;0.30;99.90;;;;;;5054384;28;20017;-75
2021/03/20 04:38:04;;;;;;;28.70;16.15;;;0.10;99.90;;;;;;5053246;28;20100;-75
2021/03/20 04:40:37;;;;;;;25.00;15.02;;;0.20;99.90;;;;;;5054347;28;20113;-75
2021/03/20 04:43:04;;;;;;;26.25;15.23;;;0.10;99.90;;;;;;5054342;28;20025;-75
2021/03/20 04:45:39;;;;;;;26.80;16.38;;;0.30;99.90;;;;;;5054217;28;20025;-76
2021/03/20 04:48:16;;;;;;;26.02;15.30;;;0.30;99.90;;;;;;5054193;28;20017;-75
2021/03/20 04:50:46;;;;;;;27.45;16.08;;;0.30;99.90;;;;;;5069651;28;20108;-75
2021/03/20 04:53:13;;;;;;;31.83;14.90;;;0.40;99.90;;;;;;5054121;28;20450;-76
2021/03/20 04:55:40;;;;;;;31.45;15.80;;;0.50;99.90;;;;;;5053928;28;20431;-75
2021/03/20 04:58:27;;;;;;;27.30;15.60;;;0.50;99.90;;;;;;5069224;28;20496;-75
2021/03/20 05:01:01;;;;;;;24.38;14.75;;;0.60;99.90;;;;;;5052953;28;20086;-75
2021/03/20 05:03:45;;;;;;;24.55;15.02;;;0.60;99.90;;;;;;5054022;28;20465;-75
2021/03/20 05:06:14;;;;;;;26.52;16.70;;;0.60;99.90;;;;;;5053816;28;20028;-74
2021/03/20 05:09:02;;;;;;;29.35;16.27;;;0.60;99.90;;;;;;5053736;28;20025;-75
2021/03/20 05:11:38;;;;;;;26.00;14.75;;;0.40;99.90;;;;;;5052014;28;20120;-75
2021/03/20 05:14:15;;;;;;;27.42;15.35;;;0.30;99.90;;;;;;5053279;28;20036;-75
2021/03/20 05:16:49;;;;;;;27.70;15.15;;;0.30;99.90;;;;;;5035808;28;20029;-74
2021/03/20 05:19:16;;;;;;;29.67;16.52;;;0.40;99.90;;;;;;5053658;28;20017;-75
2021/03/20 05:21:44;;;;;;;28.92;14.63;;;0.60;99.90;;;;;;5053630;28;20044;-75
2021/03/20 05:24:29;;;;;;;31.88;17.00;;;0.50;99.90;;;;;;5053621;28;20373;-75
2021/03/20 05:26:57;;;;;;;27.63;15.77;;;0.50;99.90;;;;;;5053469;28;20029;-75
2021/03/20 05:29:24;;;;;;;25.08;14.65;;;0.20;99.90;;;;;;5053530;28;20047;-76
2021/03/20 05:31:50;;;;;;;24.45;14.18;;;0.00;99.90;;;;;;5053440;28;20031;-75
2021/03/20 05:34:25;;;;;;;33.97;18.00;;;-0.10;99.90;;;;;;5053411;28;20025;-75
2021/03/20 05:36:51;;;;;;;29.55;17.75;;;0.00;99.90;;;;;;5053190;28;20025;-75
2021/03/20 05:39:17;;;;;;;39.00;17.00;;;0.10;99.90;;;;;;5053187;28;20021;-76
2021/03/20 05:42:04;;;;;;;26.02;14.90;;;0.30;99.90;;;;;;5053232;28;20024;-76
2021/03/20 05:44:54;;;;;;;26.58;16.00;;;0.50;99.90;;;;;;5053142;28;20027;-76
2021/03/20 05:47:35;;;;;;;27.65;15.77;;;0.60;99.90;;;;;;5068503;28;20025;-76
2021/03/20 05:50:13;;;;;;;27.98;15.73;;;0.50;99.90;;;;;;5053046;28;20445;-76
2021/03/20 05:53:04;;;;;;;29.23;15.80;;;0.40;99.90;;;;;;5051823;28;20029;-77
2021/03/20 05:55:40;;;;;;;22.17;12.88;;;0.50;99.90;;;;;;5052758;28;20025;-75
2021/03/20 05:58:36;;;;;;;26.85;13.32;;;0.50;99.90;;;;;;5051448;28;20377;-78
2021/03/20 06:01:11;;;;;;;24.02;12.32;;;0.20;99.90;;;;;;5068232;28;20112;-76
2021/03/20 06:04:15;;;;;;;17.63;10.63;;;0.00;99.90;;;;;;5052929;28;20036;-77
2021/03/20 06:07:05;;;;;;;15.60;10.07;;;0.00;99.90;;;;;;5052605;28;20025;-76
2021/03/20 06:09:40;;;;;;;23.48;11.57;;;0.00;99.90;;;;;;5052646;28;20040;-76
2021/03/20 06:12:18;;;;;;;18.27;10.00;;;-0.30;99.90;;;;;;5068017;28;20378;-76
2021/03/20 06:14:48;;;;;;;15.38;10.40;;;-0.40;99.90;;;;;;5067911;28;20029;-76
2021/03/20 06:17:19;;;;;;;19.30;10.82;;;-0.40;99.90;;;;;;5051299;28;20021;-76
2021/03/20 06:20:02;;;;;;;;;;;-0.20;99.90;;;;;;5068261;28;20025;-76
2021/03/20 06:22:52;;;;;;;21.48;11.68;;;-0.30;99.90;;;;;;5052507;28;20331;-76
2021/03/20 06:25:58;;;;;;;23.23;12.82;;;-0.10;99.90;;;;;;5050368;28;20079;-76
2021/03/20 06:28:35;;;;;;;17.08;10.50;;;-0.10;99.90;;;;;;5034435;28;20028;-75
2021/03/20 06:31:11;;;;;;;18.55;10.95;;;-0.20;99.90;;;;;;5067737;28;20021;-76
2021/03/20 06:33:49;;;;;;;14.02;9.68;;;-0.30;99.90;;;;;;5052411;28;20024;-75
2021/03/20 06:36:27;;;;;;;15.48;10.30;;;-0.20;99.90;;;;;;5052216;28;20480;-77
2021/03/20 06:39:02;;;;;;;15.48;9.88;;;-0.50;99.90;;;;;;5050968;28;20113;-76
2021/03/20 06:41:40;;;;;;;17.27;11.27;;;-0.50;99.90;;;;;;5052190;28;20366;-76
2021/03/20 06:44:30;;;;;;;20.02;11.30;;;-0.50;99.90;;;;;;5052108;28;20476;-76
2021/03/20 06:46:56;;;;;;;18.05;11.70;;;-0.30;99.90;;;;;;5050664;28;20025;-76
2021/03/20 06:49:30;;;;;;;24.20;12.90;;;-0.30;99.90;;;;;;5051965;28;20027;-75
2021/03/20 06:51:59;;;;;;;20.42;11.00;;;-0.40;99.90;;;;;;5051892;28;20021;-76
2021/03/20 06:54:27;;;;;;;30.95;11.63;;;-0.40;99.90;;;;;;5067550;23;20020;-74
2021/03/20 06:56:53;;;;;;;18.75;10.48;;;-0.20;99.90;;;;;;5072556;28;20035;-75
2021/03/20 06:59:21;;;;;;;23.25;11.48;;;-0.10;99.90;;;;;;5072818;28;20442;-74
2021/03/20 07:02:20;;;;;;;15.30;11.00;;;-0.10;99.90;;;;;;5037555;28;20029;-74
2021/03/20 07:05:18;;;;;;;19.92;9.40;;;-0.20;99.90;;;;;;5071968;28;20081;-74
2021/03/20 07:08:09;;;;;;;39.35;12.57;;;-0.30;99.90;;;;;;5071847;28;20126;-74
2021/03/20 07:10:46;;;;;;;23.33;11.45;;;-0.20;99.90;;;;;;5053979;28;20025;-74
2021/03/20 07:13:26;;;;;;;45.22;12.85;;;-0.20;99.90;;;;;;5037426;28;20539;-74
2021/03/20 07:16:03;;;;;;;39.35;12.30;;;0.00;99.90;;;;;;5054200;28;20017;-73
2021/03/20 07:18:37;;;;;;;38.50;11.05;;;0.30;99.90;;;;;;5072093;28;20130;-73
2021/03/20 07:21:21;;;;;;;29.85;10.57;;;0.20;99.90;;;;;;5071936;28;20395;-73
2021/03/20 07:24:12;;;;;;;22.52;10.73;;;0.30;99.90;;;;;;5072155;28;20104;-73
2021/03/20 07:26:55;;;;;;;21.88;8.35;;;0.30;99.90;;;;;;5053524;28;20078;-73
2021/03/20 07:29:39;;;;;;;18.33;10.10;;;0.40;99.90;;;;;;5071947;28;20028;-73
2021/03/20 07:32:05;;;;;;;19.20;10.45;;;0.00;99.90;;;;;;5071831;28;20025;-73
2021/03/20 07:34:34;;;;;;;12.85;8.57;;;-0.10;99.90;;;;;;5053649;28;20092;-73
2021/03/20 07:37:18;;;;;;;19.35;9.77;;;-0.20;99.90;;;;;;5056374;28;20020;-73
2021/03/20 07:39:48;;;;;;;27.83;10.73;;;-0.40;99.90;;;;;;5057757;28;20475;-73
2021/03/20 07:42:33;;;;;;;27.70;10.52;;;-0.40;99.90;;;;;;5040888;28;20021;-72
2021/03/20 07:45:27;;;;;;;27.45;10.50;;;-0.40;99.90;;;;;;5057468;28;20468;-74
2021/03/20 07:47:55;;;;;;;37.88;12.15;;;-0.30;99.90;;;;;;5075330;28;20078;-72
2021/03/20 07:50:40;;;;;;;18.13;11.05;;;-0.20;99.90;;;;;;5066926;28;20110;-73
2021/03/20 07:53:17;;;;;;;23.98;10.18;;;-0.20;99.90;;;;;;5037174;28;20025;-72
2021/03/20 07:56:04;;;;;;;21.33;9.25;;;0.00;99.90;;;;;;5055073;28;20076;-73
2021/03/20 07:58:46;;;;;;;39.72;10.18;;;0.00;99.90;;;;;;5037287;28;20028;-73
2021/03/20 08:01:14;;;;;;;;;;;0.30;99.90;;;;;;5055618;28;20029;-72
2021/03/20 08:04:08;;;;;;;18.35;10.38;;;0.40;99.90;;;;;;5055099;28;19909;-72
2021/03/20 08:06:49;;;;;;;26.25;9.35;;;0.60;99.90;;;;;;5035173;28;20404;-74
2021/03/20 08:09:21;;;;;;;18.13;9.25;;;0.70;99.90;;;;;;5054899;28;20082;-74
2021/03/20 08:12:05;;;;;;;;;;;0.80;99.90;;;;;;5055570;28;20542;-74
2021/03/20 08:14:31;;;;;;;17.58;8.55;;;0.70;99.10;;;;;;5057853;28;19999;-75
2021/03/20 08:16:58;;;;;;;15.25;8.85;;;0.50;97.90;;;;;;5068799;28;20059;-75
2021/03/20 08:19:25;;;;;;;23.25;9.70;;;0.60;98.10;;;;;;5065400;28;20028;-74
2021/03/20 08:22:09;;;;;;;18.58;8.50;;;0.70;99.30;;;;;;5036856;28;20599;-74
2021/03/20 08:24:48;;;;;;;15.55;8.93;;;0.70;97.90;;;;;;5037249;28;20048;-74
2021/03/20 08:27:30;;;;;;;19.65;7.90;;;0.70;96.50;;;;;;5074686;28;20111;-74
2021/03/20 08:30:23;;;;;;;24.08;9.10;;;0.80;96.30;;;;;;5074518;28;20532;-74
2021/03/20 08:33:02;;;;;;;30.73;8.43;;;0.60;95.40;;;;;;5042190;28;20538;-74
2021/03/20 08:35:46;;;;;;;12.43;8.13;;;0.70;94.20;;;;;;5053229;28;20024;-75
2021/03/20 08:38:30;;;;;;;14.90;7.55;;;0.60;93.80;;;;;;5056525;28;20067;-76
2021/03/20 08:41:14;;;;;;;14.50;6.90;;;0.70;94.80;;;;;;5056822;28;20029;-73
2021/03/20 08:44:14;;;;;;;13.60;7.78;;;0.90;93.60;;;;;;5074367;28;20456;-73
2021/03/20 08:47:11;;;;;;;26.23;7.18;;;0.90;94.10;;;;;;5074192;28;20027;-74
2021/03/20 08:49:44;;;;;;;8.02;5.80;;;1.30;93.60;;;;;;5073811;28;20059;-73
2021/03/20 08:52:25;;;;;;;15.27;6.32;;;1.30;90.10;;;;;;5074690;28;20114;-73
2021/03/20 08:55:29;;;;;;;15.27;9.05;;;1.00;89.80;;;;;;5074270;28;20551;-73
2021/03/20 08:58:13;;;;;;;9.32;6.22;;;1.30;91.50;;;;;;5072933;28;20549;-74
2021/03/20 09:00:56;;;;;;;11.23;6.47;;;1.50;90.20;;;;;;5036639;28;20052;-74
2021/03/20 09:03:38;;;;;;;11.32;6.53;;;1.80;90.60;;;;;;5054275;28;20127;-73
2021/03/20 09:06:22;;;;;;;14.32;6.82;;;1.40;88.20;;;;;;5053802;28;20480;-75
2021/03/20 09:08:51;;;;;;;38.33;18.88;;;1.30;91.30;;;;;;5053827;28;20040;-75
2021/03/20 09:11:22;;;;;;;12.40;7.15;;;1.30;89.50;;;;;;5019571;28;20155;-75
2021/03/20 09:13:53;;;;;;;17.35;6.43;;;1.60;91.20;;;;;;5036204;28;20021;-74
2021/03/20 09:17:02;;;;;;;15.23;6.57;;;1.50;88.50;;;;;;5053688;28;20534;-74
2021/03/20 09:19:34;;;;;;;12.15;6.03;;;1.60;90.00;;;;;;4986860;28;20046;-74
2021/03/20 09:22:12;;;;;;;13.02;6.63;;;1.60;90.40;;;;;;4959048;28;20038;-74
2021/03/20 09:24:49;;;;;;;10.82;6.20;;;1.70;89.40;;;;;;5030354;28;20480;-74
2021/03/20 09:27:53;;;;;;;12.23;6.63;;;1.90;87.90;;;;;;5046130;28;20086;-74
2021/03/20 09:30:35;;;;;;;21.25;7.13;;;1.80;88.60;;;;;;5073464;28;20048;-74
2021/03/20 09:33:22;;;;;;;16.55;7.32;;;1.80;88.60;;;;;;5073244;28;20095;-75
2021/03/20 09:35:53;;;;;;;34.15;11.00;;;1.80;90.50;;;;;;5074125;28;20033;-75
2021/03/20 09:38:37;;;;;;;16.02;7.45;;;1.60;91.00;;;;;;5038388;28;20070;-74
2021/03/20 09:41:15;;;;;;;9.13;6.95;;;1.50;90.10;;;;;;5055367;28;20036;-74
2021/03/20 09:44:00;;;;;;;10.48;6.65;;;1.30;90.20;;;;;;5073132;28;20024;-75
2021/03/20 09:46:35;;;;;;;12.07;6.60;;;1.40;90.50;;;;;;5055287;28;20062;-74
2021/03/20 09:49:07;;;;;;;12.75;7.25;;;1.50;89.40;;;;;;5073297;28;20029;-74
2021/03/20 09:51:54;;;;;;;10.85;7.20;;;1.60;88.60;;;;;;5055401;28;20021;-75
2021/03/20 09:59:42;;;;;;;14.32;6.53;;;2.10;88.10;;;;;;5055156;28;20179;-74
2021/03/20 10:02:11;;;;;;;8.88;6.25;;;2.10;85.50;;;;;;5055121;28;20095;-75
2021/03/20 10:04:56;;;;;;;15.27;6.93;;;1.80;84.90;;;;;;5054834;28;20020;-74
2021/03/20 10:07:22;;;;;;;15.80;6.10;;;1.60;85.60;;;;;;5054950;28;20032;-74
2021/03/20 10:09:59;;;;;;;9.43;6.13;;;1.60;87.20;;;;;;5054837;28;20434;-74
2021/03/20 10:12:42;;;;;;;13.80;7.75;;;1.50;86.20;;;;;;5054911;28;20158;-74
2021/03/20 10:15:17;;;;;;;11.90;7.45;;;1.70;90.00;;;;;;5037943;28;20075;-74
2021/03/20 10:17:58;;;;;;;9.82;6.78;;;1.80;88.60;;;;;;5055155;28;20502;-74
2021/03/20 10:20:40;;;;;;;8.63;6.22;;;1.80;86.20;;;;;;5038177;28;20033;-74
2021/03/20 10:23:43;;;;;;;10.80;6.10;;;1.70;86.10;;;;;;5054567;28;20028;-74
2021/03/20 10:26:19;;;;;;;9.52;6.90;;;1.60;86.90;;;;;;5072261;28;20024;-74
2021/03/20 10:28:50;;;;;;;12.23;5.15;;;1.70;87.50;;;;;;5072340;28;20464;-74
2021/03/20 10:31:17;;;;;;;11.70;6.07;;;1.60;84.20;;;;;;5072445;28;20017;-74
2021/03/20 10:33:44;;;;;;;9.98;5.88;;;1.70;86.40;;;;;;5037974;28;20021;-74
2021/03/20 10:36:21;;;;;;;11.38;6.05;;;1.80;86.30;;;;;;5054564;28;20103;-74
2021/03/20 10:38:49;;;;;;;6.90;6.10;;;2.00;85.60;;;;;;5054718;28;20032;-74
2021/03/20 10:41:19;;;;;;;7.97;5.95;;;2.00;86.30;;;;;;5038758;28;20487;-74
2021/03/20 10:44:26;;;;;;;8.60;6.25;;;1.70;86.50;;;;;;5038379;28;20025;-74
2021/03/20 10:47:05;;;;;;;10.45;5.88;;;1.60;83.90;;;;;;5010864;28;20029;-74
2021/03/20 10:49:37;;;;;;;8.27;5.82;;;1.40;84.30;;;;;;5067581;28;20123;-74
2021/03/20 10:52:03;;;;;;;10.02;6.78;;;1.40;87.00;;;;;;5054686;28;20059;-74
2021/03/20 10:54:44;;;;;;;13.52;6.68;;;1.40;87.90;;;;;;5054913;28;20066;-74
2021/03/20 10:57:15;;;;;;;10.00;6.20;;;1.50;85.80;;;;;;5038159;28;20025;-74
2021/03/20 10:59:44;;;;;;;10.73;6.20;;;1.70;85.90;;;;;;5054980;28;20479;-74
2021/03/20 11:02:33;;;;;;;10.05;6.00;;;2.20;85.70;;;;;;5037944;28;20020;-75
2021/03/20 11:05:17;;;;;;;8.40;6.05;;;2.30;84.10;;;;;;5038398;28;20112;-75
2021/03/20 11:07:51;;;;;;;8.75;6.60;;;2.30;85.20;;;;;;5037827;28;20067;-74
2021/03/20 11:10:25;;;;;;;10.10;5.95;;;2.40;86.30;;;;;;5038077;28;20044;-74
2021/03/20 11:12:53;;;;;;;11.38;6.70;;;2.40;86.10;;;;;;5037991;28;20020;-74
2021/03/20 11:15:27;;;;;;;11.50;7.57;;;2.10;86.20;;;;;;5055396;28;20028;-75
2021/03/20 11:17:59;;;;;;;8.60;6.30;;;2.00;87.80;;;;;;5055645;28;20032;-74
2021/03/20 11:20:31;;;;;;;10.45;6.18;;;1.90;88.90;;;;;;5037933;28;20048;-74
2021/03/20 11:22:56;;;;;;;9.70;6.38;;;1.80;86.30;;;;;;5055220;28;20060;-74
2021/03/20 11:25:34;;;;;;;6.30;5.25;;;1.80;84.70;;;;;;5055559;28;20056;-74
2021/03/20 11:28:06;;;;;;;10.00;6.40;;;1.70;81.90;;;;;;5054900;28;20024;-75
2021/03/20 11:30:50;;;;;;;9.52;6.05;;;1.60;83.40;;;;;;5054567;28;20074;-74
2021/03/20 11:33:19;;;;;;;9.60;6.00;;;1.50;83.80;;;;;;5054708;28;20062;-75
2021/03/20 11:35:54;;;;;;;8.25;5.95;;;1.60;83.10;;;;;;5054234;28;20476;-75
2021/03/20 11:38:22;;;;;;;8.30;5.93;;;1.70;82.90;;;;;;5054256;28;20052;-75
2021/03/20 11:41:11;;;;;;;10.95;6.38;;;1.70;82.10;;;;;;5038095;28;20112;-75
2021/03/20 11:43:47;;;;;;;9.77;7.03;;;1.70;83.80;;;;;;5028383;28;20036;-74
2021/03/20 11:46:27;;;;;;;12.82;7.80;;;1.80;83.70;;;;;;5037722;28;20113;-75
2021/03/20 11:49:04;;;;;;;12.10;7.25;;;2.00;83.40;;;;;;5072145;28;20103;-74
2021/03/20 11:51:35;;;;;;;7.53;6.13;;;2.00;83.80;;;;;;5054580;28;20031;-74
2021/03/20 11:54:04;;;;;;;;;;;1.80;82.60;;;;;;5054945;28;20373;-74
2021/03/20 11:56:33;;;;;;;9.60;6.45;;;1.50;84.70;;;;;;5037064;28;19913;-77
2021/03/20 11:59:23;;;;;;;9.65;6.40;;;1.40;85.30;;;;;;5037264;28;20029;-74
2021/03/20 12:01:49;;;;;;;11.95;6.55;;;1.60;84.90;;;;;;5037407;28;20035;-75
2021/03/20 12:04:23;;;;;;;9.13;6.40;;;1.70;83.10;;;;;;5037617;28;20025;-75
2021/03/20 12:06:49;;;;;;;9.15;6.18;;;1.80;81.30;;;;;;5052767;28;20025;-76
2021/03/20 12:09:24;;;;;;;9.23;6.13;;;1.90;82.00;;;;;;5017420;28;20025;-76
2021/03/20 12:11:51;;;;;;;16.40;5.60;;;2.20;81.50;;;;;;5051458;28;20028;-75
2021/03/20 12:14:25;;;;;;;36.13;5.78;;;2.20;77.50;;;;;;5041641;28;20013;-75
2021/03/20 12:17:02;;;;;;;23.65;5.80;;;2.10;78.10;;;;;;5043992;28;20040;-75
2021/03/20 12:19:27;;;;;;;9.60;5.97;;;1.90;77.40;;;;;;5054777;28;20115;-75
2021/03/20 12:21:59;;;;;;;12.98;5.72;;;1.80;77.90;;;;;;5051589;28;20068;-75
2021/03/20 12:24:32;;;;;;;;;;;1.90;78.10;;;;;;5036855;28;20476;-73
2021/03/20 12:27:22;;;;;;;6.40;4.63;;;2.00;77.00;;;;;;5055046;28;19905;-73
2021/03/20 12:29:55;;;;;;;7.28;5.25;;;2.70;78.60;;;;;;5042965;28;20044;-73
2021/03/20 12:32:35;;;;;;;9.70;5.90;;;3.70;75.50;;;;;;5020653;28;20071;-74
2021/03/20 12:35:14;;;;;;;10.50;5.53;;;4.40;72.20;;;;;;5054926;28;20488;-73
2021/03/20 12:37:40;;;;;;;12.10;6.07;;;5.10;71.80;;;;;;5036868;28;20117;-73
2021/03/20 12:40:07;;;;;;;8.70;6.43;;;5.00;71.90;;;;;;5037030;28;20067;-73
2021/03/20 12:42:33;;;;;;;11.38;7.78;;;4.60;72.60;;;;;;5020371;28;20036;-74
2021/03/20 12:44:58;;;;;;;10.68;7.72;;;4.10;77.80;;;;;;5054765;28;20025;-73
2021/03/20 12:47:25;;;;;;;10.07;6.50;;;3.60;79.40;;;;;;5036413;28;20490;-74
2021/03/20 12:49:50;;;;;;;11.65;6.95;;;3.80;80.20;;;;;;5049784;28;20315;-73
2021/03/20 12:52:21;;;;;;;12.57;7.63;;;4.10;78.20;;;;;;5074389;28;20021;-73
2021/03/20 12:54:50;;;;;;;13.45;6.07;;;3.80;79.50;;;;;;5056192;28;20106;-76
2021/03/20 12:57:27;;;;;;;8.65;5.85;;;3.50;77.70;;;;;;5071700;22;20059;-75
2021/03/20 12:59:53;;;;;;;13.70;6.18;;;3.30;76.90;;;;;;5052025;28;20025;-75
2021/03/20 13:02:19;;;;;;;32.33;6.55;;;3.10;76.00;;;;;;5053583;28;20032;-75
2021/03/20 13:04:47;;;;;;;24.23;6.40;;;3.10;74.50;;;;;;5053292;28;20092;-75
2021/03/20 13:07:13;;;;;;;13.45;5.20;;;3.10;72.60;;;;;;5053399;28;20092;-75
2021/03/20 13:09:39;;;;;;;8.55;4.90;;;3.40;71.40;;;;;;5052661;28;20017;-75
2021/03/20 13:12:07;;;;;;;11.73;5.70;;;3.50;71.90;;;;;;5052201;28;20074;-76
2021/03/20 13:14:34;;;;;;;7.22;4.75;;;3.50;67.70;;;;;;5053321;28;20357;-75
2021/03/20 13:17:04;;;;;;;7.15;6.32;;;3.90;69.20;;;;;;5052907;28;20021;-75
2021/03/20 13:19:30;;;;;;;12.50;7.18;;;3.40;76.00;;;;;;5052775;28;20127;-75
2021/03/20 13:21:56;;;;;;;10.55;7.43;;;3.00;82.80;;;;;;5053154;28;20025;-75
2021/03/20 13:24:22;;;;;;;11.73;7.38;;;2.80;87.70;;;;;;5053108;28;20060;-75
2021/03/20 13:26:48;;;;;;;11.45;6.75;;;2.30;87.90;;;;;;5051714;28;20059;-75
2021/03/20 13:29:15;;;;;;;14.63;7.25;;;1.80;90.20;;;;;;5052680;28;20025;-75
2021/03/20 13:31:41;;;;;;;23.88;8.20;;;1.50;92.40;;;;;;5051931;28;20060;-74